Time;durP1;ratioP1;P1;durP2;ratioP2;P2;SDS_P1;SDS_P2;PMS_P1;PMS_P2;Temp;Humidity;BMP_temperature;BMP_pressure;BME280_temperature;BME280_humidity;BME280_pressure;Samples;Min_cycle;Max_cycle;Signal;HPM_P1;HPM_P2
2022/04/24 00:01:06;;;;;;;9.02;6.55;;;8.90;73.40;;;;;;5072701;28;20096;-49
2022/04/24 00:03:33;;;;;;;8.52;6.38;;;8.90;73.60;;;;;;5054328;28;20086;-48
2022/04/24 00:06:00;;;;;;;9.48;6.30;;;8.90;73.50;;;;;;5072585;28;20029;-46
2022/04/24 00:08:26;;;;;;;10.98;6.88;;;8.90;73.60;;;;;;5069241;28;20086;-50
2022/04/24 00:10:53;;;;;;;7.45;6.57;;;8.80;73.70;;;;;;5072608;28;20342;-46
2022/04/24 00:13:20;;;;;;;9.50;7.07;;;8.80;73.80;;;;;;5068592;28;20449;-47
2022/04/24 00:15:46;;;;;;;10.05;7.15;;;8.80;73.80;;;;;;5053672;28;20032;-47
2022/04/24 00:18:13;;;;;;;8.18;6.63;;;8.80;73.80;;;;;;5071093;28;20108;-46
2022/04/24 00:20:42;;;;;;;11.00;6.65;;;8.80;73.80;;;;;;5072696;28;20041;-46
2022/04/24 00:23:08;;;;;;;8.88;6.72;;;8.70;73.80;;;;;;5056800;28;20025;-50
2022/04/24 00:25:35;;;;;;;8.50;6.63;;;8.70;74.00;;;;;;5068531;28;20180;-47
2022/04/24 00:28:02;;;;;;;9.38;7.80;;;8.60;74.10;;;;;;5059017;28;20032;-47
2022/04/24 00:30:29;;;;;;;8.30;7.18;;;8.60;74.10;;;;;;5072178;28;20043;-47
2022/04/24 00:32:55;;;;;;;8.65;6.75;;;8.60;74.00;;;;;;5072684;28;20025;-50
2022/04/24 00:35:22;;;;;;;8.00;6.55;;;8.70;73.90;;;;;;5054596;28;20119;-48
2022/04/24 00:37:51;;;;;;;9.93;6.90;;;8.70;74.00;;;;;;5067154;28;20382;-48
2022/04/24 00:40:19;;;;;;;10.23;6.93;;;8.70;74.10;;;;;;5072285;28;20025;-47
2022/04/24 00:42:46;;;;;;;14.82;8.02;;;8.60;74.40;;;;;;5071243;28;20119;-45
2022/04/24 00:45:12;;;;;;;9.25;6.88;;;8.60;74.30;;;;;;5071816;28;20020;-48
2022/04/24 00:47:41;;;;;;;10.88;6.47;;;8.50;74.10;;;;;;5071681;28;20119;-47
2022/04/24 00:50:09;;;;;;;8.47;7.17;;;8.50;74.20;;;;;;5070547;28;20045;-46
2022/04/24 00:52:37;;;;;;;9.07;6.43;;;8.50;74.20;;;;;;5073371;28;20305;-45
2022/04/24 00:55:05;;;;;;;7.75;6.22;;;8.50;74.10;;;;;;5085766;28;20029;-48
2022/04/24 00:57:31;;;;;;;8.75;6.72;;;8.50;74.40;;;;;;5071603;28;20028;-47
2022/04/24 01:00:02;;;;;;;10.13;5.97;;;8.40;74.40;;;;;;5071095;28;20032;-48
2022/04/24 01:02:29;;;;;;;9.77;6.43;;;8.50;74.70;;;;;;5071433;28;20036;-49
2022/04/24 01:04:57;;;;;;;8.50;6.30;;;8.40;74.60;;;;;;5071075;28;20036;-51
2022/04/24 01:07:27;;;;;;;11.85;7.35;;;8.40;74.80;;;;;;5055601;28;20442;-48
2022/04/24 01:09:56;;;;;;;7.28;5.80;;;8.40;75.30;;;;;;5070952;28;20041;-46
2022/04/24 01:12:27;;;;;;;12.43;7.13;;;8.40;75.40;;;;;;5067001;28;20036;-49
2022/04/24 01:14:55;;;;;;;8.77;6.95;;;8.30;75.30;;;;;;5061995;28;20044;-49
2022/04/24 01:17:22;;;;;;;10.48;7.05;;;8.40;75.40;;;;;;5071230;28;20025;-47
2022/04/24 01:19:52;;;;;;;11.18;6.80;;;8.30;75.60;;;;;;5070420;28;20025;-50
2022/04/24 01:22:20;;;;;;;;;;;8.30;75.70;;;;;;5068811;28;20047;-50
2022/04/24 01:24:49;;;;;;;7.80;6.38;;;8.30;75.50;;;;;;5071133;28;19912;-51
2022/04/24 01:27:16;;;;;;;7.68;5.95;;;8.30;75.30;;;;;;5071909;28;20327;-45
2022/04/24 01:29:43;;;;;;;10.75;6.57;;;8.30;75.60;;;;;;5053327;28;20039;-48
2022/04/24 01:32:09;;;;;;;8.68;6.20;;;8.30;75.80;;;;;;5067984;28;20037;-50
2022/04/24 01:34:35;;;;;;;11.10;6.57;;;8.20;76.20;;;;;;5071305;28;20037;-47
2022/04/24 01:37:02;;;;;;;11.13;6.95;;;8.20;76.60;;;;;;5058610;28;20106;-49
2022/04/24 01:39:29;;;;;;;12.10;8.27;;;8.20;76.70;;;;;;5063979;28;20047;-47
2022/04/24 01:41:55;;;;;;;12.02;8.35;;;8.20;76.70;;;;;;5046972;28;20040;-47
2022/04/24 01:44:22;;;;;;;8.77;6.88;;;8.20;76.80;;;;;;5056144;28;20021;-51
2022/04/24 01:46:48;;;;;;;10.10;6.45;;;8.20;77.00;;;;;;5055787;28;20021;-47
2022/04/24 01:49:13;;;;;;;10.15;6.22;;;8.10;76.90;;;;;;5047755;28;20056;-48
2022/04/24 01:51:40;;;;;;;14.10;10.40;;;8.20;77.30;;;;;;5032846;28;20478;-49
2022/04/24 01:54:10;;;;;;;13.52;7.18;;;8.10;77.90;;;;;;5036451;28;20033;-50
2022/04/24 01:56:36;;;;;;;10.00;7.10;;;8.10;78.10;;;;;;5036143;28;20580;-47
2022/04/24 01:59:03;;;;;;;10.48;7.50;;;8.20;78.30;;;;;;5035719;28;20756;-46
2022/04/24 02:01:30;;;;;;;11.98;8.30;;;8.10;78.50;;;;;;5036376;28;20136;-48
2022/04/24 02:03:57;;;;;;;12.38;7.80;;;8.10;78.90;;;;;;5035157;28;20555;-46
2022/04/24 02:06:28;;;;;;;12.43;8.43;;;8.10;79.20;;;;;;5066924;28;20029;-50
2022/04/24 02:08:54;;;;;;;13.20;8.10;;;8.10;79.40;;;;;;5036078;28;20026;-49
2022/04/24 02:11:21;;;;;;;10.05;7.82;;;8.10;79.70;;;;;;5032777;28;20032;-50
2022/04/24 02:13:47;;;;;;;12.00;7.70;;;8.10;79.90;;;;;;5035052;28;20033;-50
2022/04/24 02:16:14;;;;;;;13.85;8.40;;;8.10;79.80;;;;;;5035731;28;20091;-47
2022/04/24 02:18:45;;;;;;;16.10;8.57;;;8.10;80.20;;;;;;5034096;28;20465;-48
2022/04/24 02:21:11;;;;;;;12.65;9.00;;;8.00;80.50;;;;;;5034705;28;20065;-48
2022/04/24 02:23:40;;;;;;;11.48;8.57;;;8.10;80.80;;;;;;5035340;28;20466;-48
2022/04/24 02:26:06;;;;;;;13.63;8.47;;;8.00;80.90;;;;;;5035055;28;20038;-48
2022/04/24 02:28:35;;;;;;;14.90;9.13;;;8.00;81.00;;;;;;5034624;28;20370;-46
2022/04/24 02:31:02;;;;;;;10.52;8.98;;;8.10;80.90;;;;;;5035145;28;20053;-46
2022/04/24 02:33:28;;;;;;;12.27;9.85;;;8.10;81.00;;;;;;5035169;28;20125;-46
2022/04/24 02:35:57;;;;;;;14.25;9.00;;;8.10;81.30;;;;;;5038466;28;20440;-48
2022/04/24 02:38:24;;;;;;;12.77;9.73;;;8.20;81.40;;;;;;5049022;28;20116;-46
2022/04/24 02:40:51;;;;;;;11.70;9.18;;;8.10;81.40;;;;;;5035005;28;20029;-47
2022/04/24 02:43:17;;;;;;;17.05;10.27;;;8.20;81.50;;;;;;5032303;28;20048;-49
2022/04/24 02:45:44;;;;;;;15.32;10.68;;;8.20;81.50;;;;;;5034704;28;20405;-47
2022/04/24 02:48:11;;;;;;;13.88;9.95;;;8.20;81.50;;;;;;5034705;28;20021;-47
2022/04/24 02:50:39;;;;;;;16.45;9.50;;;8.20;81.60;;;;;;5035857;28;20053;-49
2022/04/24 02:53:07;;;;;;;15.45;8.80;;;8.20;81.60;;;;;;5034680;28;20116;-49
2022/04/24 02:55:33;;;;;;;15.75;10.10;;;8.20;81.70;;;;;;5034207;28;20021;-46
2022/04/24 02:58:00;;;;;;;12.30;8.55;;;8.20;81.60;;;;;;5035208;28;20033;-47
2022/04/24 03:00:39;;;;;;;17.58;9.80;;;8.20;81.00;;;;;;5034409;28;20033;-49
2022/04/24 03:03:07;;;;;;;13.80;8.68;;;8.20;80.80;;;;;;5034387;28;20024;-48
2022/04/24 03:05:35;;;;;;;11.55;8.00;;;8.20;80.30;;;;;;5033500;28;20029;-48
2022/04/24 03:08:03;;;;;;;13.65;8.60;;;8.20;79.90;;;;;;5034714;28;20033;-48
2022/04/24 03:10:30;;;;;;;10.35;7.85;;;8.20;79.60;;;;;;5018374;28;20095;-47
2022/04/24 03:12:57;;;;;;;10.25;7.05;;;8.20;79.20;;;;;;5033826;28;20045;-46
2022/04/24 03:15:23;;;;;;;10.50;7.13;;;8.10;78.80;;;;;;5033363;28;21571;-47
2022/04/24 03:17:54;;;;;;;10.75;7.38;;;8.10;78.90;;;;;;5031983;28;20030;-46
2022/04/24 03:20:22;;;;;;;8.52;6.47;;;8.10;78.80;;;;;;5038022;28;20049;-47
2022/04/24 03:22:50;;;;;;;9.20;6.15;;;8.10;78.60;;;;;;5031302;28;20036;-48
2022/04/24 03:25:16;;;;;;;12.52;7.28;;;8.10;78.70;;;;;;5028950;28;20112;-46
2022/04/24 03:27:45;;;;;;;9.82;6.65;;;8.10;78.70;;;;;;5017570;28;20117;-45
2022/04/24 03:30:12;;;;;;;11.30;6.60;;;8.00;78.30;;;;;;5029781;28;20343;-47
2022/04/24 03:32:42;;;;;;;7.90;5.53;;;8.10;78.10;;;;;;5034194;28;20073;-45
2022/04/24 03:35:10;;;;;;;10.65;6.45;;;8.10;77.50;;;;;;5040508;28;20032;-53
2022/04/24 03:37:38;;;;;;;8.20;5.95;;;8.20;77.70;;;;;;5035134;28;20030;-46
2022/04/24 03:40:06;;;;;;;7.80;4.50;;;8.20;77.20;;;;;;5018312;28;20019;-47
2022/04/24 03:42:33;;;;;;;8.75;4.80;;;8.20;77.10;;;;;;5016786;28;20086;-47
2022/04/24 03:44:58;;;;;;;6.13;5.15;;;8.20;76.60;;;;;;5033562;28;20108;-47
2022/04/24 03:47:28;;;;;;;7.20;4.32;;;8.30;76.30;;;;;;5033008;28;20458;-49
2022/04/24 03:49:55;;;;;;;7.28;3.95;;;8.30;76.20;;;;;;5048155;28;20052;-47
2022/04/24 03:52:22;;;;;;;6.13;3.83;;;8.30;75.80;;;;;;5053552;28;20040;-48
2022/04/24 03:54:47;;;;;;;7.47;4.40;;;8.40;75.40;;;;;;5052831;28;20478;-47
2022/04/24 03:57:14;;;;;;;6.82;3.80;;;8.40;75.70;;;;;;5053520;28;20039;-46
2022/04/24 03:59:40;;;;;;;7.82;4.15;;;8.40;75.60;;;;;;5051722;28;20025;-47
2022/04/24 04:02:07;;;;;;;8.18;4.32;;;8.40;75.40;;;;;;5038533;28;20441;-48
2022/04/24 04:04:36;;;;;;;9.05;4.30;;;8.30;75.30;;;;;;5054303;28;20036;-48
2022/04/24 04:07:06;;;;;;;8.00;4.13;;;8.20;75.90;;;;;;5053959;28;20108;-50
2022/04/24 04:09:32;;;;;;;6.88;3.67;;;8.20;76.30;;;;;;5053426;28;20060;-46
2022/04/24 04:11:59;;;;;;;8.35;4.40;;;8.20;76.90;;;;;;5054394;28;20037;-48
2022/04/24 04:14:26;;;;;;;6.10;3.95;;;8.00;76.70;;;;;;5054028;28;20345;-49
2022/04/24 04:16:53;;;;;;;10.48;4.20;;;7.90;77.10;;;;;;5053912;28;20021;-47
2022/04/24 04:19:22;;;;;;;7.80;4.03;;;8.00;77.30;;;;;;5049082;28;20037;-47
2022/04/24 04:21:49;;;;;;;6.28;4.20;;;7.90;77.50;;;;;;5052162;28;20487;-46
2022/04/24 04:24:16;;;;;;;8.88;3.20;;;7.90;77.90;;;;;;5053385;28;20039;-50
2022/04/24 04:26:44;;;;;;;6.68;3.28;;;7.90;77.60;;;;;;5036994;28;20120;-47
2022/04/24 04:29:11;;;;;;;9.00;3.95;;;7.90;77.80;;;;;;5053428;28;20029;-51
2022/04/24 04:31:38;;;;;;;8.93;5.32;;;7.90;78.30;;;;;;5051829;28;20068;-46
2022/04/24 04:34:07;;;;;;;9.48;4.93;;;7.90;79.20;;;;;;5033361;28;20045;-48
2022/04/24 04:36:34;;;;;;;8.68;5.00;;;7.90;79.40;;;;;;5048708;28;20029;-47
2022/04/24 04:39:06;;;;;;;9.65;4.82;;;7.90;79.80;;;;;;5054812;28;20051;-46
2022/04/24 04:41:33;;;;;;;10.57;4.20;;;7.80;79.80;;;;;;5052744;28;20095;-46
2022/04/24 04:44:00;;;;;;;14.55;5.05;;;7.90;79.50;;;;;;5052761;28;20040;-46
2022/04/24 04:46:26;;;;;;;12.68;5.38;;;7.80;80.00;;;;;;5035374;28;20033;-51
2022/04/24 04:48:54;;;;;;;10.55;5.43;;;7.90;80.20;;;;;;5048558;28;20075;-47
2022/04/24 04:51:21;;;;;;;12.23;6.88;;;7.80;80.50;;;;;;5031851;28;20091;-48
2022/04/24 04:53:51;;;;;;;12.75;6.05;;;7.80;80.80;;;;;;5016248;28;20037;-46
2022/04/24 04:56:17;;;;;;;;;;;7.80;80.80;;;;;;5032598;28;20022;-48
2022/04/24 04:58:43;;;;;;;12.73;5.28;;;7.90;81.00;;;;;;5032386;28;20248;-46
2022/04/24 05:01:10;;;;;;;10.07;5.55;;;7.90;81.10;;;;;;5031292;28;20033;-47
2022/04/24 05:03:35;;;;;;;10.23;5.00;;;7.90;81.00;;;;;;5032564;28;20038;-47
2022/04/24 05:06:05;;;;;;;9.45;5.55;;;8.00;80.80;;;;;;5026435;28;20086;-49
2022/04/24 05:08:31;;;;;;;8.90;5.80;;;8.10;80.40;;;;;;5032581;28;20369;-47
2022/04/24 05:10:58;;;;;;;10.30;5.80;;;8.30;79.60;;;;;;5032184;28;20110;-48
2022/04/24 05:13:25;;;;;;;11.25;5.65;;;8.40;79.00;;;;;;5014116;28;20026;-45
2022/04/24 05:15:52;;;;;;;7.38;4.72;;;8.50;77.90;;;;;;5031288;28;20029;-47
2022/04/24 05:18:21;;;;;;;8.88;4.97;;;8.50;77.00;;;;;;5031876;28;20044;-47
2022/04/24 05:20:48;;;;;;;10.23;5.38;;;8.70;76.40;;;;;;5030422;28;20034;-47
2022/04/24 05:23:13;;;;;;;9.65;4.30;;;8.70;75.80;;;;;;5032682;28;20378;-47
2022/04/24 05:25:40;;;;;;;9.68;5.25;;;8.80;75.70;;;;;;5031868;28;20061;-46
2022/04/24 05:28:09;;;;;;;9.63;4.78;;;8.80;75.70;;;;;;5031218;28;20071;-46
2022/04/24 05:30:36;;;;;;;23.10;6.43;;;8.70;75.60;;;;;;5030652;28;20442;-45
2022/04/24 05:33:04;;;;;;;14.68;4.88;;;8.70;75.40;;;;;;5015130;28;20120;-48
2022/04/24 05:35:31;;;;;;;12.68;5.85;;;8.70;76.00;;;;;;5029780;28;20112;-46
2022/04/24 05:37:57;;;;;;;12.10;6.28;;;8.60;76.10;;;;;;5033430;28;20128;-46
2022/04/24 05:40:24;;;;;;;13.82;5.32;;;8.70;76.00;;;;;;5030019;28;20040;-46
2022/04/24 05:42:54;;;;;;;7.82;4.50;;;8.90;75.90;;;;;;5009487;28;20037;-47
2022/04/24 05:45:26;;;;;;;9.23;4.80;;;9.00;74.30;;;;;;5034998;28;20036;-46
2022/04/24 05:47:54;;;;;;;9.40;4.45;;;9.10;74.40;;;;;;5034454;28;20033;-47
2022/04/24 05:50:23;;;;;;;9.43;5.53;;;9.30;74.70;;;;;;5028122;28;20080;-45
2022/04/24 05:52:52;;;;;;;10.38;5.68;;;9.30;75.00;;;;;;5031875;28;20025;-47
2022/04/24 05:55:21;;;;;;;9.70;6.25;;;9.30;75.00;;;;;;5031538;28;20163;-52
2022/04/24 05:57:49;;;;;;;10.50;5.85;;;9.30;74.00;;;;;;5032305;28;20477;-45
2022/04/24 06:00:17;;;;;;;10.20;5.28;;;9.40;74.40;;;;;;5031289;28;20030;-46
2022/04/24 06:02:44;;;;;;;9.70;5.65;;;9.40;74.50;;;;;;5031973;28;20029;-47
2022/04/24 06:05:13;;;;;;;9.55;5.80;;;9.50;74.50;;;;;;5032259;28;20038;-47
2022/04/24 06:07:43;;;;;;;10.10;4.72;;;9.40;73.90;;;;;;5031877;28;20466;-48
2022/04/24 06:10:11;;;;;;;11.63;5.53;;;9.50;73.40;;;;;;5031587;28;20087;-48
2022/04/24 06:12:56;;;;;;;12.70;5.78;;;9.40;73.50;;;;;;5030413;28;20092;-46
2022/04/24 06:15:25;;;;;;;7.90;4.28;;;9.40;73.30;;;;;;5031668;28;20109;-45
2022/04/24 06:17:53;;;;;;;7.43;4.70;;;9.40;73.30;;;;;;5030952;28;20421;-46
2022/04/24 06:20:23;;;;;;;6.60;4.93;;;9.40;73.10;;;;;;5030885;28;20291;-45
2022/04/24 06:23:07;;;;;;;8.55;4.80;;;9.40;73.10;;;;;;5028079;28;20029;-47
2022/04/24 06:25:34;;;;;;;9.23;5.00;;;9.50;72.90;;;;;;5030576;28;20065;-44
2022/04/24 06:28:02;;;;;;;10.75;5.00;;;9.40;72.80;;;;;;5034771;28;20116;-47
2022/04/24 06:30:31;;;;;;;9.27;5.35;;;9.40;73.30;;;;;;5035025;28;20097;-48
2022/04/24 06:32:57;;;;;;;7.78;4.68;;;9.40;73.20;;;;;;5034816;28;20075;-48
2022/04/24 06:35:27;;;;;;;8.10;5.47;;;9.40;73.10;;;;;;5035427;28;20026;-46
2022/04/24 06:38:00;;;;;;;10.15;5.28;;;9.50;73.10;;;;;;5035400;28;20025;-46
2022/04/24 06:40:30;;;;;;;8.38;4.03;;;9.40;73.50;;;;;;5035075;28;20021;-46
2022/04/24 06:42:59;;;;;;;;;;;9.60;73.80;;;;;;5034777;28;20076;-45
2022/04/24 06:45:41;;;;;;;7.43;4.70;;;9.60;72.90;;;;;;5034157;28;19913;-48
2022/04/24 06:48:13;;;;;;;9.52;4.53;;;9.60;72.60;;;;;;5033578;28;20033;-48
2022/04/24 06:50:45;;;;;;;7.07;4.63;;;9.60;71.80;;;;;;5049449;28;20056;-45
2022/04/24 06:53:18;;;;;;;10.52;4.93;;;9.60;72.10;;;;;;5057699;28;20075;-46
2022/04/24 06:55:49;;;;;;;10.20;4.55;;;9.60;72.60;;;;;;5055504;28;20021;-48
2022/04/24 06:58:18;;;;;;;8.05;4.18;;;9.70;72.50;;;;;;5054867;28;20100;-46
2022/04/24 07:00:46;;;;;;;9.45;4.80;;;9.70;72.10;;;;;;5054767;28;20422;-46
2022/04/24 07:03:16;;;;;;;9.63;4.00;;;9.80;72.50;;;;;;5036657;28;20053;-49
2022/04/24 07:05:48;;;;;;;8.30;4.07;;;9.90;72.90;;;;;;5052985;28;20041;-45
2022/04/24 07:08:17;;;;;;;8.98;4.22;;;9.90;72.00;;;;;;5054374;28;20083;-46
2022/04/24 07:10:42;;;;;;;7.28;4.32;;;9.90;71.80;;;;;;5054496;28;20449;-47
2022/04/24 07:13:08;;;;;;;7.25;3.75;;;9.90;71.60;;;;;;5053597;28;20071;-50
2022/04/24 07:15:38;;;;;;;8.13;4.25;;;10.00;71.70;;;;;;5053493;28;20025;-48
2022/04/24 07:18:07;;;;;;;6.75;4.25;;;10.00;71.70;;;;;;5052280;28;20033;-48
2022/04/24 07:20:35;;;;;;;9.70;3.75;;;10.00;73.00;;;;;;5053082;28;20104;-48
2022/04/24 07:23:03;;;;;;;8.98;4.72;;;10.10;73.00;;;;;;5037087;28;20398;-48
2022/04/24 07:25:34;;;;;;;9.35;3.90;;;10.20;72.80;;;;;;5052839;28;20446;-46
2022/04/24 07:28:01;;;;;;;7.28;4.22;;;10.20;72.60;;;;;;5052946;28;20033;-47
2022/04/24 07:30:31;;;;;;;7.32;3.63;;;10.20;72.30;;;;;;5036143;28;20029;-45
2022/04/24 07:32:59;;;;;;;7.28;3.92;;;10.40;72.30;;;;;;5053639;28;20098;-46
2022/04/24 07:35:33;;;;;;;7.97;4.70;;;10.50;72.10;;;;;;5056126;28;20053;-48
2022/04/24 07:38:00;;;;;;;8.05;4.32;;;10.60;71.80;;;;;;5060076;28;20024;-46
2022/04/24 07:40:29;;;;;;;13.82;4.80;;;10.80;71.80;;;;;;5053761;28;20036;-46
2022/04/24 07:42:59;;;;;;;7.28;3.88;;;10.90;71.50;;;;;;5052390;28;20017;-46
2022/04/24 07:45:36;;;;;;;9.00;3.92;;;11.10;70.60;;;;;;5037898;28;20033;-49
2022/04/24 07:48:05;;;;;;;9.60;3.47;;;11.40;69.50;;;;;;5053376;28;20151;-48
2022/04/24 07:50:37;;;;;;;6.43;3.72;;;11.80;68.00;;;;;;5032180;28;20045;-45
2022/04/24 07:53:04;;;;;;;6.80;4.00;;;12.10;65.80;;;;;;5033235;28;20022;-48
2022/04/24 07:55:31;;;;;;;6.55;3.97;;;12.40;64.10;;;;;;5032469;28;20339;-46
2022/04/24 07:57:58;;;;;;;7.53;4.30;;;12.50;64.30;;;;;;5034226;28;20323;-48
2022/04/24 08:00:28;;;;;;;9.65;4.18;;;12.70;64.50;;;;;;5032403;28;20083;-46
2022/04/24 08:03:08;;;;;;;6.28;3.70;;;13.10;64.50;;;;;;5031970;28;20114;-52
2022/04/24 08:05:52;;;;;;;6.45;3.65;;;13.60;63.90;;;;;;5030349;28;20021;-48
2022/04/24 08:08:23;;;;;;;8.15;4.72;;;13.70;61.20;;;;;;5031216;28;20614;-47
2022/04/24 08:10:58;;;;;;;8.85;4.32;;;13.50;61.10;;;;;;5032318;28;20763;-47
2022/04/24 08:13:26;;;;;;;8.70;4.55;;;13.50;62.20;;;;;;5027326;28;20061;-48
2022/04/24 08:15:57;;;;;;;6.72;4.15;;;13.80;61.80;;;;;;5032137;28;20029;-49
2022/04/24 08:18:27;;;;;;;8.48;4.72;;;14.00;61.60;;;;;;5032413;28;20037;-48
2022/04/24 08:20:59;;;;;;;7.78;4.80;;;14.00;61.30;;;;;;5032453;28;20140;-49
2022/04/24 08:23:26;;;;;;;9.38;4.72;;;13.90;60.50;;;;;;5032583;28;20082;-48
2022/04/24 08:25:52;;;;;;;8.35;3.92;;;13.80;59.80;;;;;;5031011;28;20461;-48
2022/04/24 08:28:18;;;;;;;8.93;4.30;;;13.80;59.30;;;;;;5050086;28;20029;-52
2022/04/24 08:30:48;;;;;;;6.93;4.18;;;13.90;59.90;;;;;;5029948;28;20036;-47
2022/04/24 08:33:15;;;;;;;8.02;4.53;;;13.90;59.50;;;;;;5029631;28;20036;-47
2022/04/24 08:35:46;;;;;;;6.38;3.58;;;14.10;58.50;;;;;;5030457;28;20112;-46
2022/04/24 08:38:13;;;;;;;9.25;4.57;;;14.30;59.60;;;;;;5035166;28;20040;-46
2022/04/24 08:40:40;;;;;;;6.13;3.85;;;14.40;58.60;;;;;;5029947;28;20335;-46
2022/04/24 08:43:13;;;;;;;6.28;3.97;;;14.80;57.90;;;;;;5014801;28;20025;-49
2022/04/24 08:45:43;;;;;;;6.40;3.78;;;14.70;58.40;;;;;;5031120;28;20108;-46
2022/04/24 08:48:13;;;;;;;6.40;4.20;;;14.40;59.20;;;;;;5031897;28;20143;-48
2022/04/24 08:50:41;;;;;;;;;;;14.50;57.60;;;;;;5029148;28;20366;-47
2022/04/24 08:53:08;;;;;;;6.63;4.00;;;14.40;57.80;;;;;;5062982;28;20352;-50
2022/04/24 08:55:36;;;;;;;6.05;4.22;;;14.50;58.20;;;;;;5031229;28;20061;-49
2022/04/24 08:58:03;;;;;;;10.52;4.00;;;14.40;58.50;;;;;;5032511;28;20029;-48
2022/04/24 09:00:33;;;;;;;7.47;3.55;;;14.60;59.40;;;;;;5030528;28;20025;-45
2022/04/24 09:03:00;;;;;;;7.28;4.82;;;14.60;59.10;;;;;;5030952;28;20105;-46
2022/04/24 09:05:30;;;;;;;7.72;5.30;;;14.70;59.30;;;;;;5031618;28;20033;-47
2022/04/24 09:08:10;;;;;;;;;;;14.50;58.80;;;;;;5031962;28;20032;-49
2022/04/24 09:10:58;;;;;;;6.10;3.88;;;14.50;60.20;;;;;;5031801;28;20003;-46
2022/04/24 09:16:38;;;;;;;7.32;4.55;;;14.60;58.40;;;;;;5028035;28;20041;-46
2022/04/24 09:19:15;;;;;;;7.78;4.55;;;14.40;60.00;;;;;;5029949;28;20022;-46
2022/04/24 09:21:42;;;;;;;6.60;3.95;;;14.60;59.00;;;;;;5031157;28;20045;-45
2022/04/24 09:24:09;;;;;;;6.78;4.85;;;14.90;58.90;;;;;;5031207;28;20064;-51
2022/04/24 09:26:36;;;;;;;8.05;3.75;;;14.80;59.40;;;;;;5031590;28;20409;-47
2022/04/24 09:29:13;;;;;;;5.97;4.22;;;14.80;60.20;;;;;;5028336;28;20033;-47
2022/04/24 09:31:49;;;;;;;6.55;3.83;;;14.90;60.10;;;;;;5031297;28;20382;-46
2022/04/24 09:34:20;;;;;;;7.30;4.82;;;14.80;59.30;;;;;;5031798;28;20065;-46
2022/04/24 09:37:00;;;;;;;9.00;3.90;;;14.90;58.40;;;;;;5035313;28;20393;-46
2022/04/24 09:39:32;;;;;;;10.60;4.22;;;15.10;58.40;;;;;;5029731;28;20119;-45
2022/04/24 09:42:07;;;;;;;6.13;3.47;;;15.00;57.10;;;;;;5030969;28;20481;-46
2022/04/24 09:44:52;;;;;;;5.82;3.67;;;15.00;57.30;;;;;;5061504;28;20029;-47
2022/04/24 09:47:23;;;;;;;12.15;4.07;;;15.20;58.50;;;;;;5030953;28;20107;-47
2022/04/24 09:49:53;;;;;;;8.82;4.00;;;15.20;57.00;;;;;;5049888;28;20036;-46
2022/04/24 09:52:39;;;;;;;8.52;3.40;;;15.10;58.80;;;;;;5070449;28;20035;-44
2022/04/24 09:55:06;;;;;;;5.75;3.30;;;15.20;56.60;;;;;;5069452;28;20044;-47
2022/04/24 09:57:34;;;;;;;6.43;3.78;;;15.10;56.80;;;;;;5068732;28;20111;-46
2022/04/24 10:00:03;;;;;;;7.10;3.80;;;15.30;57.20;;;;;;5063331;28;20097;-44
2022/04/24 10:02:30;;;;;;;9.13;3.72;;;15.10;55.80;;;;;;5064618;28;20361;-45
2022/04/24 10:04:58;;;;;;;9.60;3.88;;;15.10;56.20;;;;;;5069751;28;20533;-45
2022/04/24 10:07:25;;;;;;;9.00;3.88;;;15.00;55.50;;;;;;5073315;28;20024;-47
2022/04/24 10:09:54;;;;;;;5.32;3.28;;;15.00;57.40;;;;;;5072905;28;20476;-47
2022/04/24 10:12:21;;;;;;;5.43;4.00;;;15.10;55.90;;;;;;5074103;28;20045;-44
2022/04/24 10:15:00;;;;;;;5.07;3.15;;;15.20;57.10;;;;;;5069638;28;20038;-47
2022/04/24 10:18:03;;;;;;;5.43;3.10;;;15.20;57.80;;;;;;5072974;28;20052;-46
2022/04/24 10:21:12;;;;;;;12.90;3.47;;;15.20;57.70;;;;;;5089729;28;20025;-44
2022/04/24 10:23:38;;;;;;;5.55;3.80;;;15.30;58.10;;;;;;5074707;28;20025;-44
2022/04/24 10:26:25;;;;;;;9.15;3.42;;;15.30;58.40;;;;;;5053828;28;20119;-46
2022/04/24 10:29:11;;;;;;;9.93;3.75;;;15.30;57.40;;;;;;5070617;28;20029;-45
2022/04/24 10:31:47;;;;;;;13.85;4.05;;;15.30;57.60;;;;;;5071464;28;20024;-49
2022/04/24 10:34:16;;;;;;;6.68;3.88;;;15.40;56.90;;;;;;5073273;28;20036;-44
2022/04/24 10:37:01;;;;;;;6.25;4.07;;;15.50;57.70;;;;;;5070223;28;20367;-44
2022/04/24 10:39:33;;;;;;;10.95;3.72;;;15.50;56.50;;;;;;5080873;28;20020;-48
2022/04/24 10:42:12;;;;;;;6.05;3.50;;;15.20;56.80;;;;;;5070919;28;20028;-44
2022/04/24 10:44:50;;;;;;;6.00;3.45;;;15.20;56.80;;;;;;5056614;28;20099;-46
2022/04/24 10:47:17;;;;;;;7.25;3.83;;;15.30;56.40;;;;;;5073876;28;20037;-49
2022/04/24 10:49:44;;;;;;;8.80;3.97;;;15.50;56.40;;;;;;5044302;28;20060;-44
2022/04/24 10:52:11;;;;;;;8.85;3.97;;;15.60;54.80;;;;;;5035677;28;20045;-46
2022/04/24 10:54:40;;;;;;;7.85;3.80;;;15.40;55.10;;;;;;5034801;28;20101;-47
2022/04/24 10:57:40;;;;;;;9.87;4.27;;;15.40;56.90;;;;;;5066000;28;20029;-47
2022/04/24 11:00:19;;;;;;;6.22;3.65;;;15.20;55.90;;;;;;5023445;28;20059;-46
2022/04/24 11:02:46;;;;;;;9.43;3.78;;;15.20;56.10;;;;;;5034149;28;20476;-46
2022/04/24 11:05:22;;;;;;;9.32;4.20;;;15.30;55.40;;;;;;5035142;28;20030;-49
2022/04/24 11:08:01;;;;;;;7.07;3.25;;;15.10;55.90;;;;;;5035491;28;20417;-46
2022/04/24 11:10:28;;;;;;;6.43;3.47;;;15.30;57.00;;;;;;5034977;28;20032;-48
2022/04/24 11:12:56;;;;;;;13.10;4.18;;;15.40;55.80;;;;;;5034443;28;20322;-46
2022/04/24 11:15:22;;;;;;;7.35;4.00;;;15.30;56.80;;;;;;5034829;28;20579;-47
2022/04/24 11:17:49;;;;;;;10.63;4.10;;;15.40;57.50;;;;;;5035186;28;20032;-48
2022/04/24 11:20:16;;;;;;;12.30;3.92;;;15.40;56.50;;;;;;5034150;28;20029;-47
2022/04/24 11:22:50;;;;;;;10.23;3.40;;;15.20;55.20;;;;;;5034098;28;20100;-46
2022/04/24 11:25:19;;;;;;;9.15;3.45;;;15.10;57.60;;;;;;5062818;28;20040;-46
2022/04/24 11:27:53;;;;;;;8.07;4.10;;;14.80;57.50;;;;;;5034279;28;20445;-46
2022/04/24 11:30:21;;;;;;;6.53;3.38;;;14.90;57.40;;;;;;5034743;28;20033;-46
2022/04/24 11:33:05;;;;;;;4.68;3.13;;;14.90;57.80;;;;;;5033731;28;20494;-47
2022/04/24 11:35:37;;;;;;;5.85;3.50;;;15.20;56.20;;;;;;5036928;28;20159;-45
2022/04/24 11:38:12;;;;;;;8.27;3.35;;;15.00;58.10;;;;;;5038267;28;20056;-46
2022/04/24 11:40:48;;;;;;;7.57;3.22;;;15.00;56.70;;;;;;5032746;28;20362;-47
2022/04/24 11:43:18;;;;;;;7.88;3.47;;;15.00;56.90;;;;;;5034436;28;20017;-45
2022/04/24 11:51:19;;;;;;;8.65;3.75;;;15.10;56.10;;;;;;5062662;28;20035;-47
2022/04/24 11:53:46;;;;;;;9.15;3.85;;;14.90;58.20;;;;;;5042952;28;20029;-45
2022/04/24 11:56:13;;;;;;;5.55;3.33;;;15.00;57.10;;;;;;5037596;28;20322;-47
2022/04/24 11:58:41;;;;;;;6.63;3.28;;;15.10;56.50;;;;;;5053955;28;20180;-47
2022/04/24 12:01:09;;;;;;;8.45;3.80;;;15.10;56.90;;;;;;5066266;28;20485;-46
2022/04/24 12:03:37;;;;;;;7.45;3.25;;;14.80;58.60;;;;;;5040424;28;20037;-46
2022/04/24 12:06:30;;;;;;;6.72;3.42;;;14.40;58.60;;;;;;5037059;28;20433;-46
2022/04/24 12:09:04;;;;;;;6.80;3.05;;;14.30;56.10;;;;;;5054298;28;20033;-48
2022/04/24 12:11:32;;;;;;;12.10;3.33;;;14.30;58.00;;;;;;5053097;28;20461;-47
2022/04/24 12:14:02;;;;;;;6.22;3.72;;;14.40;57.90;;;;;;5053616;28;20116;-46
2022/04/24 12:16:28;;;;;;;6.70;3.13;;;14.50;57.60;;;;;;5055138;28;20036;-47
2022/04/24 12:19:01;;;;;;;4.68;2.85;;;14.60;56.20;;;;;;5053110;28;20093;-46
2022/04/24 12:21:31;;;;;;;5.45;3.33;;;14.40;55.80;;;;;;5053446;28;20029;-46
2022/04/24 12:23:57;;;;;;;6.97;3.03;;;14.30;58.40;;;;;;5066831;28;20086;-46
2022/04/24 12:26:25;;;;;;;7.60;3.53;;;14.40;58.90;;;;;;5071125;28;20416;-47
2022/04/24 12:28:52;;;;;;;7.13;3.10;;;14.50;56.40;;;;;;5072498;28;20033;-46
2022/04/24 12:31:28;;;;;;;6.78;3.40;;;14.50;57.60;;;;;;5071418;28;20028;-51
2022/04/24 12:34:00;;;;;;;10.02;3.38;;;14.50;58.50;;;;;;5050784;28;20042;-48
2022/04/24 12:36:28;;;;;;;9.65;3.22;;;14.50;57.60;;;;;;5071629;28;20044;-46
2022/04/24 12:38:58;;;;;;;6.22;2.80;;;14.60;58.10;;;;;;5067861;28;20032;-47
2022/04/24 12:41:27;;;;;;;7.30;3.30;;;14.40;56.70;;;;;;5062277;28;20483;-46
2022/04/24 12:44:04;;;;;;;12.00;3.65;;;14.40;56.20;;;;;;5049768;28;20068;-46
2022/04/24 12:46:32;;;;;;;6.22;3.38;;;14.40;58.50;;;;;;5065010;28;20025;-48
2022/04/24 12:48:58;;;;;;;10.25;3.10;;;14.40;57.20;;;;;;5055628;28;20060;-46
2022/04/24 12:51:28;;;;;;;7.55;3.15;;;14.40;56.70;;;;;;5046549;28;20033;-47
2022/04/24 12:53:58;;;;;;;9.98;3.58;;;14.50;58.00;;;;;;5029108;28;20103;-45
2022/04/24 12:56:25;;;;;;;7.15;3.35;;;14.50;56.20;;;;;;5029261;28;20029;-48
2022/04/24 12:58:53;;;;;;;8.43;3.47;;;14.40;55.20;;;;;;5020969;28;20022;-46
2022/04/24 13:01:23;;;;;;;7.15;4.10;;;14.50;57.00;;;;;;5025195;28;20028;-45
2022/04/24 13:03:53;;;;;;;7.25;3.33;;;14.60;57.40;;;;;;5024428;28;20021;-46
2022/04/24 13:06:20;;;;;;;9.88;2.97;;;14.60;56.90;;;;;;5026559;28;20481;-46
2022/04/24 13:08:47;;;;;;;8.60;3.13;;;14.60;57.70;;;;;;5030540;28;20068;-48
2022/04/24 13:11:14;;;;;;;6.18;2.60;;;14.60;57.40;;;;;;5031067;28;20080;-45